createdAt,value
2017-12-11T00:00:52.082Z,86.50
2017-12-11T00:03:17.823Z,86.65
2017-12-11T00:05:43.571Z,87.06
2017-12-11T00:08:09.320Z,87.18
2017-12-11T00:10:35.074Z,87.34
2017-12-11T00:13:00.823Z,87.37
2017-12-11T00:15:26.574Z,87.34
2017-12-11T00:17:52.330Z,87.45
2017-12-11T00:20:18.083Z,87.36
2017-12-11T00:22:46.823Z,87.27
2017-12-11T00:25:12.584Z,87.38
2017-12-11T00:27:38.333Z,87.16
2017-12-11T00:30:04.095Z,87.26
2017-12-11T00:32:29.828Z,87.58
2017-12-11T00:34:55.583Z,87.10
2017-12-11T00:37:21.316Z,87.26
2017-12-11T00:39:47.086Z,87.41
2017-12-11T00:42:12.822Z,87.04
2017-12-11T00:44:38.589Z,87.00
2017-12-11T00:47:04.346Z,87.52
2017-12-11T00:49:30.088Z,87.56
2017-12-11T00:51:55.851Z,87.96
2017-12-11T00:54:21.586Z,87.78
2017-12-11T00:56:47.341Z,87.80
2017-12-11T00:59:13.075Z,87.78
2017-12-11T01:01:38.836Z,87.76
2017-12-11T01:04:04.589Z,87.96
2017-12-11T01:06:30.347Z,87.95
2017-12-11T01:08:56.100Z,88.14
2017-12-11T01:11:21.838Z,87.93
2017-12-11T01:13:47.598Z,88.25
2017-12-11T01:16:13.357Z,88.15
2017-12-11T01:18:39.091Z,88.30
2017-12-11T01:21:04.847Z,88.33
2017-12-11T01:23:30.612Z,88.25
2017-12-11T01:25:56.354Z,88.45
2017-12-11T01:28:22.099Z,88.61
2017-12-11T01:30:47.853Z,88.32
2017-12-11T01:33:13.607Z,88.44
2017-12-11T01:35:39.352Z,88.13
2017-12-11T01:38:05.096Z,87.95
2017-12-11T01:40:30.863Z,87.78
2017-12-11T01:42:56.611Z,88.09
2017-12-11T01:45:22.367Z,88.42
2017-12-11T01:47:48.132Z,88.26
2017-12-11T01:50:13.883Z,88.74
2017-12-11T01:52:39.624Z,88.81
2017-12-11T01:55:05.375Z,88.52
2017-12-11T01:57:31.126Z,88.43
2017-12-11T01:59:56.875Z,88.36
2017-12-11T02:02:22.661Z,88.10
2017-12-11T02:04:48.414Z,87.98
2017-12-11T02:07:14.161Z,87.99
2017-12-11T02:09:39.915Z,87.87
2017-12-11T02:12:05.654Z,87.90
2017-12-11T02:14:31.410Z,87.60
2017-12-11T02:16:57.152Z,88.13
2017-12-11T02:19:22.911Z,88.08
2017-12-11T02:21:48.655Z,88.46
2017-12-11T02:24:14.406Z,88.45
2017-12-11T02:26:40.172Z,88.45
2017-12-11T02:29:05.923Z,88.32
2017-12-11T02:31:31.700Z,88.27
2017-12-11T02:33:57.444Z,88.31
2017-12-11T02:36:23.191Z,87.85
2017-12-11T02:38:48.982Z,87.85
2017-12-11T02:41:14.726Z,87.86
2017-12-11T02:43:40.469Z,87.54
2017-12-11T02:46:06.222Z,87.23
2017-12-11T02:48:31.991Z,87.24
2017-12-11T02:50:57.756Z,86.94
2017-12-11T02:53:23.500Z,86.79
2017-12-11T02:55:49.261Z,86.54
2017-12-11T02:58:15.023Z,86.53
2017-12-11T03:00:40.767Z,86.34
2017-12-11T03:03:06.523Z,86.36
2017-12-11T03:05:32.270Z,86.26
2017-12-11T03:07:58.019Z,85.56
2017-12-11T03:10:23.784Z,86.03
2017-12-11T03:12:49.529Z,85.62
2017-12-11T03:15:15.283Z,86.09
2017-12-11T03:17:41.030Z,86.21
2017-12-11T03:20:06.774Z,86.55
2017-12-11T03:22:32.527Z,86.36
2017-12-11T03:24:58.271Z,86.35
2017-12-11T03:27:24.023Z,86.46
2017-12-11T03:29:49.770Z,86.23
2017-12-11T03:32:15.526Z,86.19
2017-12-11T03:34:41.269Z,86.25
2017-12-11T03:37:07.030Z,86.44
2017-12-11T03:39:32.784Z,85.81
2017-12-11T03:41:58.531Z,85.13
2017-12-11T03:44:26.005Z,85.12
2017-12-11T03:46:51.743Z,85.25
2017-12-11T03:49:17.504Z,85.67
2017-12-11T03:51:43.251Z,85.99
2017-12-11T03:54:09.007Z,86.13
2017-12-11T03:56:34.752Z,86.25
2017-12-11T03:59:00.508Z,86.50
2017-12-11T04:01:26.605Z,86.39
2017-12-11T04:03:53.576Z,86.18
2017-12-11T04:06:19.395Z,86.42
2017-12-11T04:08:45.153Z,85.95
2017-12-11T04:11:10.899Z,85.92
2017-12-11T04:13:36.656Z,85.45
2017-12-11T04:16:02.398Z,85.38
2017-12-11T04:18:28.151Z,85.20
2017-12-11T04:20:53.903Z,85.00
2017-12-11T04:23:19.635Z,85.32
2017-12-11T04:25:45.391Z,85.63
2017-12-11T04:28:11.119Z,85.44
2017-12-11T04:30:36.891Z,85.27
2017-12-11T04:33:02.641Z,85.28
2017-12-11T04:35:28.425Z,84.86
2017-12-11T04:37:54.179Z,84.86
2017-12-11T04:40:19.935Z,85.31
2017-12-11T04:42:45.684Z,85.51
2017-12-11T04:45:11.491Z,85.72
2017-12-11T04:47:37.248Z,85.32
2017-12-11T04:50:03.030Z,85.80
2017-12-11T04:52:28.775Z,86.04
2017-12-11T04:54:54.537Z,85.65
2017-12-11T04:57:20.291Z,85.94
2017-12-11T04:59:46.052Z,86.17
2017-12-11T05:02:11.819Z,86.07
2017-12-11T05:04:37.576Z,85.96
2017-12-11T05:07:03.353Z,86.09
2017-12-11T05:09:29.100Z,86.15
2017-12-11T05:11:54.860Z,85.86
2017-12-11T05:14:20.610Z,85.22
2017-12-11T05:16:46.363Z,85.17
2017-12-11T05:19:12.232Z,85.34
2017-12-11T05:21:38.007Z,85.06
2017-12-11T05:24:03.753Z,85.01
2017-12-11T05:26:29.514Z,84.61
2017-12-11T05:28:55.275Z,84.52
2017-12-11T05:31:21.027Z,84.55
2017-12-11T05:33:46.783Z,84.24
2017-12-11T05:36:12.539Z,84.41
2017-12-11T05:38:38.299Z,84.58
2017-12-11T05:41:04.059Z,84.52
2017-12-11T05:43:29.815Z,84.88
2017-12-11T05:45:55.578Z,84.97
2017-12-11T05:48:21.330Z,84.94
2017-12-11T05:50:47.099Z,84.83
2017-12-11T05:53:12.858Z,85.39
2017-12-11T05:55:38.606Z,85.70
2017-12-11T05:58:04.372Z,86.08
2017-12-11T06:00:30.121Z,86.34
2017-12-11T06:02:55.883Z,86.47
2017-12-11T06:05:21.626Z,86.58
2017-12-11T06:07:47.394Z,86.54
2017-12-11T06:10:13.143Z,86.43
2017-12-11T06:12:38.912Z,86.43
2017-12-11T06:15:04.665Z,86.03
2017-12-11T06:17:30.436Z,85.77
2017-12-11T06:19:56.179Z,85.67
2017-12-11T06:22:21.947Z,85.50
2017-12-11T06:24:47.698Z,85.09
2017-12-11T06:27:13.442Z,85.53
2017-12-11T06:29:39.235Z,85.77
2017-12-11T06:32:04.976Z,85.80
2017-12-11T06:34:30.730Z,85.78
2017-12-11T06:36:56.469Z,85.18
2017-12-11T06:39:22.236Z,85.17
2017-12-11T06:41:47.968Z,84.75
2017-12-11T06:44:13.727Z,84.73
2017-12-11T06:46:39.471Z,84.55
2017-12-11T06:49:05.220Z,84.39
2017-12-11T06:51:30.963Z,84.44
2017-12-11T06:53:56.725Z,84.22
2017-12-11T06:56:22.459Z,84.14
2017-12-11T06:58:48.228Z,83.67
2017-12-11T07:01:13.963Z,83.18
2017-12-11T07:03:39.745Z,82.81
2017-12-11T07:06:05.484Z,82.49
2017-12-11T07:08:31.236Z,82.33
2017-12-11T07:10:56.971Z,82.61
2017-12-11T07:13:22.708Z,81.95
2017-12-11T07:15:48.458Z,82.04
2017-12-11T07:18:14.231Z,81.71
2017-12-11T07:20:39.982Z,81.43
2017-12-11T07:23:05.714Z,81.38
2017-12-11T07:25:31.460Z,80.63
2017-12-11T07:27:57.211Z,80.85
2017-12-11T07:30:22.983Z,80.99
2017-12-11T07:32:48.711Z,80.06
2017-12-11T07:35:14.459Z,80.44
2017-12-11T07:37:40.195Z,81.20
2017-12-11T07:40:05.936Z,81.00
2017-12-11T07:42:31.683Z,81.21
2017-12-11T07:44:57.440Z,81.29
2017-12-11T07:47:23.183Z,81.19
2017-12-11T07:49:48.948Z,81.12
2017-12-11T07:52:14.682Z,80.63
2017-12-11T07:54:40.447Z,80.75
2017-12-11T07:57:06.183Z,80.78
2017-12-11T07:59:31.918Z,81.57
2017-12-11T08:01:57.666Z,82.06
2017-12-11T08:04:23.405Z,82.59
2017-12-11T08:06:49.157Z,83.20
2017-12-11T08:09:14.895Z,82.94
2017-12-11T08:11:40.632Z,81.98
2017-12-11T08:14:06.375Z,81.76
2017-12-11T08:16:32.135Z,81.97
2017-12-11T08:18:57.880Z,81.68
2017-12-11T08:21:23.640Z,81.50
2017-12-11T08:23:49.387Z,81.62
2017-12-11T08:26:15.160Z,81.07
2017-12-11T08:28:40.923Z,80.42
2017-12-11T08:31:06.676Z,80.68
2017-12-11T08:33:32.420Z,79.97
2017-12-11T08:35:58.167Z,79.89
2017-12-11T08:38:23.919Z,79.36
2017-12-11T08:40:49.697Z,79.31
2017-12-11T08:43:15.419Z,78.97
2017-12-11T08:45:41.159Z,79.17
2017-12-11T08:48:06.899Z,78.88
2017-12-11T08:50:32.644Z,78.89
2017-12-11T08:52:58.403Z,78.60
2017-12-11T08:55:31.267Z,79.13
2017-12-11T08:57:57.028Z,79.92
2017-12-11T09:00:22.779Z,80.16
2017-12-11T09:02:48.544Z,80.35
2017-12-11T09:05:14.295Z,80.27
2017-12-11T09:07:40.052Z,79.66
2017-12-11T09:10:05.791Z,79.60
2017-12-11T09:12:31.539Z,79.94
2017-12-11T09:14:57.291Z,80.25
2017-12-11T09:17:23.046Z,80.95
2017-12-11T09:19:48.792Z,81.21
2017-12-11T09:22:14.530Z,81.16
2017-12-11T09:24:40.278Z,81.15
2017-12-11T09:27:06.016Z,81.02
2017-12-11T09:29:31.799Z,80.54
2017-12-11T09:31:57.544Z,80.38
2017-12-11T09:34:23.303Z,81.27
2017-12-11T09:36:49.051Z,82.41
2017-12-11T09:39:14.796Z,83.23
2017-12-11T09:41:40.535Z,83.47
2017-12-11T09:44:06.288Z,83.73
2017-12-11T09:46:32.023Z,84.03
2017-12-11T09:48:57.772Z,84.44
2017-12-11T09:51:23.515Z,84.50
2017-12-11T09:53:49.259Z,84.48
2017-12-11T09:56:14.998Z,84.12
2017-12-11T09:58:40.742Z,83.57
2017-12-11T10:01:06.483Z,83.11
2017-12-11T10:03:32.250Z,83.11
2017-12-11T10:05:57.991Z,83.31
2017-12-11T10:08:23.744Z,83.79
2017-12-11T10:10:49.503Z,84.01
2017-12-11T10:13:15.240Z,84.44
2017-12-11T10:15:40.995Z,85.18
2017-12-11T10:18:06.736Z,85.44
2017-12-11T10:20:32.492Z,85.48
2017-12-11T10:22:58.228Z,86.07
2017-12-11T10:25:23.989Z,86.28
2017-12-11T10:27:49.741Z,86.33
2017-12-11T10:30:15.499Z,85.74
2017-12-11T10:32:41.244Z,85.86
2017-12-11T10:35:07.001Z,85.79
2017-12-11T10:37:32.745Z,85.81
2017-12-11T10:39:58.500Z,86.12
2017-12-11T10:42:24.244Z,86.22
2017-12-11T10:44:50.012Z,86.23
2017-12-11T10:47:15.751Z,86.43
2017-12-11T10:49:41.516Z,86.38
2017-12-11T10:52:07.269Z,86.26
2017-12-11T10:54:33.023Z,86.75
2017-12-11T10:56:58.771Z,86.94
2017-12-11T10:59:24.514Z,87.03
2017-12-11T11:01:50.260Z,87.10
2017-12-11T11:04:16.007Z,87.18
2017-12-11T11:06:41.764Z,87.50
2017-12-11T11:09:07.494Z,87.57
2017-12-11T11:11:33.247Z,87.68
2017-12-11T11:13:58.978Z,87.77
2017-12-11T11:16:24.744Z,87.74
2017-12-11T11:18:50.480Z,87.14
2017-12-11T11:21:16.233Z,86.57
2017-12-11T11:23:41.975Z,86.01
2017-12-11T11:26:07.736Z,85.82
2017-12-11T11:28:33.476Z,85.82
2017-12-11T11:30:59.233Z,85.73
2017-12-11T11:33:24.994Z,85.58
2017-12-11T11:35:50.732Z,85.12
2017-12-11T11:38:16.499Z,84.93
2017-12-11T11:40:42.236Z,84.70
2017-12-11T11:43:07.996Z,84.13
2017-12-11T11:45:33.739Z,83.59
2017-12-11T11:47:59.486Z,83.65
2017-12-11T11:50:25.230Z,83.61
2017-12-11T11:52:51.001Z,83.83
2017-12-11T11:55:16.751Z,83.68
2017-12-11T11:57:42.515Z,83.53
2017-12-11T12:00:08.286Z,83.55
2017-12-11T12:02:34.031Z,83.48
2017-12-11T12:04:59.787Z,83.31
2017-12-11T12:07:25.532Z,83.28
2017-12-11T12:09:51.268Z,83.28
2017-12-11T12:12:17.043Z,83.43
2017-12-11T12:14:42.788Z,83.28
2017-12-11T12:17:08.544Z,83.08
2017-12-11T12:19:34.299Z,82.50
2017-12-11T12:22:00.234Z,82.03
2017-12-11T12:24:26.051Z,81.90
2017-12-11T12:26:51.798Z,81.95
2017-12-11T12:29:17.575Z,82.19
2017-12-11T12:31:43.333Z,82.22
2017-12-11T12:34:09.097Z,82.80
2017-12-11T12:36:34.855Z,82.96
2017-12-11T12:39:00.627Z,82.86
2017-12-11T12:41:26.391Z,82.91
2017-12-11T12:43:52.259Z,82.65
2017-12-11T12:46:18.002Z,82.57
2017-12-11T12:48:43.776Z,82.65
2017-12-11T12:51:09.623Z,82.96
2017-12-11T12:53:35.390Z,83.13
2017-12-11T12:56:01.148Z,83.26
2017-12-11T12:58:26.910Z,83.21
2017-12-11T13:00:52.664Z,83.39
2017-12-11T13:03:18.411Z,84.21
2017-12-11T13:05:44.192Z,84.72
2017-12-11T13:08:09.937Z,85.15
2017-12-11T13:10:35.699Z,85.09
2017-12-11T13:13:01.452Z,85.48
2017-12-11T13:15:27.213Z,85.49
2017-12-11T13:17:52.963Z,85.86
2017-12-11T13:20:18.757Z,85.85
2017-12-11T13:22:44.514Z,85.66
2017-12-11T13:25:10.272Z,85.84
2017-12-11T13:27:36.026Z,85.98
2017-12-11T13:30:01.820Z,86.17
2017-12-11T13:32:27.571Z,86.12
2017-12-11T13:34:53.327Z,86.24
2017-12-11T13:37:19.076Z,86.19
2017-12-11T13:39:44.855Z,86.57
2017-12-11T13:42:10.620Z,86.88
2017-12-11T13:44:36.370Z,87.12
2017-12-11T13:47:02.135Z,86.71
2017-12-11T13:49:27.884Z,86.59
2017-12-11T13:51:53.656Z,86.71
2017-12-11T13:54:19.526Z,86.96
2017-12-11T13:56:46.757Z,87.20
2017-12-11T13:59:13.884Z,87.47
2017-12-11T14:01:39.811Z,87.52
2017-12-11T14:04:05.567Z,87.88
2017-12-11T14:06:31.334Z,88.04
2017-12-11T14:08:57.067Z,87.86
2017-12-11T14:11:22.882Z,87.78
2017-12-11T14:13:48.621Z,88.03
2017-12-11T14:16:14.376Z,87.96
2017-12-11T14:18:40.125Z,88.01
2017-12-11T14:21:05.862Z,88.37
2017-12-11T14:23:31.617Z,88.32
2017-12-11T14:25:57.423Z,88.55
2017-12-11T14:28:23.195Z,88.54
2017-12-11T14:30:48.939Z,88.53
2017-12-11T14:33:14.695Z,88.65
2017-12-11T14:35:40.431Z,88.37
2017-12-11T14:38:06.191Z,88.24
2017-12-11T14:40:31.979Z,88.07
2017-12-11T14:42:57.826Z,88.04
2017-12-11T14:45:23.679Z,88.49
2017-12-11T14:47:49.549Z,88.52
2017-12-11T14:50:15.379Z,88.51
2017-12-11T14:52:41.122Z,88.72
2017-12-11T14:55:06.855Z,88.85
2017-12-11T14:57:32.617Z,88.66
2017-12-11T14:59:58.470Z,88.67
2017-12-11T15:02:24.227Z,88.60
2017-12-11T15:04:49.961Z,88.49
2017-12-11T15:07:15.699Z,88.56
2017-12-11T15:09:41.584Z,88.48
2017-12-11T15:12:07.323Z,88.09
2017-12-11T15:14:33.063Z,87.79
2017-12-11T15:16:58.796Z,87.55
2017-12-11T15:19:24.551Z,87.13
2017-12-11T15:21:50.320Z,87.16
2017-12-11T15:24:16.081Z,87.23
2017-12-11T15:26:41.840Z,87.28
2017-12-11T15:29:07.597Z,87.46
2017-12-11T15:31:33.343Z,86.93
2017-12-11T15:33:59.105Z,86.46
2017-12-11T15:36:24.881Z,86.67
2017-12-11T15:38:50.716Z,86.78
2017-12-11T15:41:16.473Z,86.82
2017-12-11T15:43:42.226Z,86.99
2017-12-11T15:46:07.970Z,87.60
2017-12-11T15:48:33.740Z,88.43
2017-12-11T15:50:59.547Z,88.31
2017-12-11T15:53:25.351Z,88.58
2017-12-11T15:55:51.278Z,89.23
2017-12-11T15:58:17.119Z,89.24
2017-12-11T16:00:43.069Z,89.83
2017-12-11T16:03:08.813Z,89.80
2017-12-11T16:05:34.559Z,89.95
2017-12-11T16:08:00.331Z,90.01
2017-12-11T16:10:26.089Z,90.03
2017-12-11T16:12:51.873Z,90.14
2017-12-11T16:15:17.736Z,90.32
2017-12-11T16:17:43.535Z,90.45
2017-12-11T16:20:09.284Z,90.54
2017-12-11T16:22:35.074Z,90.48
2017-12-11T16:25:01.033Z,90.40
2017-12-11T16:27:26.861Z,90.42
2017-12-11T16:29:52.679Z,90.12
2017-12-11T16:32:18.423Z,89.72
2017-12-11T16:34:44.166Z,89.64
2017-12-11T16:37:09.932Z,90.13
2017-12-11T16:39:35.748Z,89.73
2017-12-11T16:42:01.500Z,89.82
2017-12-11T16:44:27.296Z,89.75
2017-12-11T16:46:53.148Z,90.21
2017-12-11T16:49:18.972Z,90.29
2017-12-11T16:51:44.824Z,90.44
2017-12-11T16:54:10.603Z,90.74
2017-12-11T16:56:36.437Z,90.71
2017-12-11T16:59:02.248Z,90.91
2017-12-11T17:01:27.996Z,91.03
2017-12-11T17:03:53.751Z,90.96
2017-12-11T17:06:19.656Z,91.05
2017-12-11T17:08:45.400Z,91.04
2017-12-11T17:11:11.176Z,90.97
2017-12-11T17:13:36.911Z,90.45
2017-12-11T17:16:02.719Z,90.33
2017-12-11T17:18:28.458Z,90.55
2017-12-11T17:20:54.184Z,90.67
2017-12-11T17:23:19.927Z,90.49
2017-12-11T17:25:45.667Z,90.63
2017-12-11T17:28:11.523Z,90.55
2017-12-11T17:30:37.256Z,90.29
2017-12-11T17:33:03.066Z,90.08
2017-12-11T17:35:28.807Z,90.13
2017-12-11T17:37:54.791Z,90.27
2017-12-11T17:40:20.818Z,90.57
2017-12-11T17:42:46.585Z,90.20
2017-12-11T17:45:12.506Z,90.61
2017-12-11T17:47:38.263Z,90.88
2017-12-11T17:50:04.004Z,91.14
2017-12-11T17:52:29.774Z,91.25
2017-12-11T17:54:55.651Z,91.15
2017-12-11T17:57:21.448Z,90.94
2017-12-11T17:59:47.292Z,90.79
2017-12-11T18:02:13.035Z,90.65
2017-12-11T18:04:38.817Z,90.81
2017-12-11T18:07:04.560Z,90.88
2017-12-11T18:09:30.409Z,90.81
2017-12-11T18:11:56.184Z,90.65
2017-12-11T18:14:21.963Z,90.68
2017-12-11T18:16:47.703Z,90.64
2017-12-11T18:19:13.525Z,90.82
2017-12-11T18:21:39.380Z,91.02
2017-12-11T18:24:05.190Z,91.12
2017-12-11T18:26:30.934Z,91.42
2017-12-11T18:28:56.699Z,91.58
2017-12-11T18:31:22.444Z,91.55
2017-12-11T18:33:48.196Z,91.48
2017-12-11T18:36:13.936Z,91.64
2017-12-11T18:38:39.696Z,91.76
2017-12-11T18:41:05.427Z,91.72
2017-12-11T18:43:31.198Z,91.56
2017-12-11T18:45:57.507Z,91.58
2017-12-11T18:48:23.256Z,91.56
2017-12-11T18:50:49.012Z,91.56
2017-12-11T18:53:15.535Z,91.40
2017-12-11T18:55:41.283Z,91.59
2017-12-11T18:58:07.024Z,91.66
2017-12-11T19:00:32.781Z,91.73
2017-12-11T19:02:58.532Z,91.74
2017-12-11T19:05:24.284Z,91.73
2017-12-11T19:07:50.027Z,91.94
2017-12-11T19:10:15.787Z,92.01
2017-12-11T19:12:41.517Z,91.97
2017-12-11T19:15:07.283Z,91.84
2017-12-11T19:17:33.035Z,91.68
2017-12-11T19:19:58.783Z,91.53
2017-12-11T19:22:24.551Z,91.28
2017-12-11T19:24:50.291Z,91.04
2017-12-11T19:27:16.035Z,91.39
2017-12-11T19:29:41.780Z,91.34
2017-12-11T19:32:07.540Z,90.97
2017-12-11T19:34:33.278Z,91.17
2017-12-11T19:36:59.032Z,91.09
2017-12-11T19:39:24.780Z,91.01
2017-12-11T19:41:50.534Z,90.94
2017-12-11T19:44:16.264Z,90.92
2017-12-11T19:46:42.012Z,90.99
2017-12-11T19:49:07.771Z,90.98
2017-12-11T19:51:33.523Z,91.05
2017-12-11T19:53:59.272Z,91.07
2017-12-11T19:56:25.047Z,91.15
2017-12-11T19:58:50.792Z,91.21
2017-12-11T20:01:16.535Z,90.88
2017-12-11T20:03:42.297Z,90.82
2017-12-11T20:06:08.019Z,90.66
2017-12-11T20:08:33.751Z,90.27
2017-12-11T20:10:59.503Z,90.24
2017-12-11T20:13:25.259Z,90.27
2017-12-11T20:15:51.003Z,90.12
2017-12-11T20:18:16.751Z,89.98
2017-12-11T20:20:42.486Z,90.23
2017-12-11T20:23:08.245Z,90.09
2017-12-11T20:25:33.983Z,90.01
2017-12-11T20:27:59.731Z,89.80
2017-12-11T20:30:25.480Z,89.75
2017-12-11T20:32:51.228Z,89.56
2017-12-11T20:35:16.972Z,89.94
2017-12-11T20:37:42.727Z,90.03
2017-12-11T20:40:08.468Z,90.14
2017-12-11T20:42:34.200Z,90.48
2017-12-11T20:44:59.949Z,90.77
2017-12-11T20:47:25.700Z,90.85
2017-12-11T20:49:51.447Z,91.07
2017-12-11T20:52:17.186Z,91.31
2017-12-11T20:54:42.934Z,91.57
2017-12-11T20:57:08.663Z,91.47
2017-12-11T20:59:34.401Z,91.29
2017-12-11T21:02:00.136Z,91.24
2017-12-11T21:04:25.875Z,90.97
2017-12-11T21:06:51.627Z,91.16
2017-12-11T21:09:17.402Z,91.35
2017-12-11T21:11:43.130Z,91.58
2017-12-11T21:14:08.894Z,91.41
2017-12-11T21:16:34.648Z,91.75
2017-12-11T21:19:00.392Z,91.91
2017-12-11T21:21:26.140Z,91.66
2017-12-11T21:23:51.887Z,91.57
2017-12-11T21:26:17.636Z,91.86
2017-12-11T21:28:43.380Z,91.84
2017-12-11T21:31:09.249Z,91.90
2017-12-11T21:33:35.043Z,91.81
2017-12-11T21:36:00.806Z,91.63
2017-12-11T21:38:26.608Z,91.66
2017-12-11T21:40:52.367Z,91.66
2017-12-11T21:43:18.128Z,91.71
2017-12-11T21:45:43.871Z,91.73
2017-12-11T21:48:09.616Z,91.58
2017-12-11T21:50:35.364Z,91.50
2017-12-11T21:53:01.103Z,91.49
2017-12-11T21:55:26.864Z,91.54
2017-12-11T21:57:52.610Z,91.47
2017-12-11T22:00:18.416Z,91.70
2017-12-11T22:02:44.132Z,91.82
2017-12-11T22:05:09.893Z,92.04
2017-12-11T22:07:35.633Z,91.88
2017-12-11T22:10:01.384Z,91.82
2017-12-11T22:12:27.124Z,91.97
2017-12-11T22:14:52.883Z,91.85
2017-12-11T22:17:18.620Z,91.71
2017-12-11T22:19:44.375Z,91.37
2017-12-11T22:22:10.126Z,91.04
2017-12-11T22:24:35.858Z,91.02
2017-12-11T22:27:01.605Z,91.01
2017-12-11T22:29:27.363Z,90.94
2017-12-11T22:31:53.107Z,90.90
2017-12-11T22:34:18.865Z,90.70
2017-12-11T22:36:44.623Z,90.61
2017-12-11T22:39:10.412Z,90.58
2017-12-11T22:41:36.115Z,90.50
2017-12-11T22:44:01.851Z,90.49
2017-12-11T22:46:27.608Z,90.28
2017-12-11T22:48:53.343Z,90.26
2017-12-11T22:51:19.074Z,90.37
2017-12-11T22:53:44.819Z,90.50
2017-12-11T22:56:10.564Z,90.47
2017-12-11T22:58:36.315Z,90.59
2017-12-11T23:01:02.059Z,90.52
2017-12-11T23:03:27.818Z,90.83
2017-12-11T23:05:53.572Z,91.00
2017-12-11T23:08:19.331Z,91.04
2017-12-11T23:10:45.063Z,90.97
2017-12-11T23:13:10.815Z,91.01
2017-12-11T23:15:36.548Z,90.75
2017-12-11T23:18:02.315Z,90.72
2017-12-11T23:20:28.063Z,90.53
2017-12-11T23:22:53.808Z,90.60
2017-12-11T23:25:19.552Z,90.52
2017-12-11T23:27:45.303Z,90.55
2017-12-11T23:30:11.048Z,90.68
2017-12-11T23:32:36.795Z,90.85
2017-12-11T23:35:02.543Z,90.73
2017-12-11T23:37:28.280Z,90.67
2017-12-11T23:39:54.011Z,90.69
2017-12-11T23:42:19.751Z,90.80
2017-12-11T23:44:45.499Z,90.77
2017-12-11T23:47:11.287Z,90.70
2017-12-11T23:49:37.039Z,90.60
2017-12-11T23:52:02.770Z,90.47
2017-12-11T23:54:32.541Z,90.54
2017-12-11T23:56:58.289Z,90.68
2017-12-11T23:59:24.036Z,90.68
